createdAt,value
2023-04-29T00:02:40.585Z,99950.06
2023-04-29T00:05:42.240Z,99957.38
2023-04-29T00:08:43.916Z,99952.94
2023-04-29T00:11:47.105Z,99946.50
2023-04-29T00:14:48.562Z,99952.09
2023-04-29T00:17:50.747Z,99965.50
2023-04-29T00:20:52.278Z,99953.78
2023-04-29T00:23:54.028Z,99965.50
2023-04-29T00:26:55.633Z,99957.53
2023-04-29T00:29:57.378Z,99962.94
2023-04-29T00:32:58.952Z,99962.09
2023-04-29T00:36:00.566Z,99964.81
2023-04-29T00:39:03.996Z,99976.50
2023-04-29T00:42:05.543Z,99973.78
2023-04-29T00:45:08.501Z,99977.53
2023-04-29T00:48:10.130Z,99981.09
2023-04-29T00:51:13.283Z,99977.53
2023-04-29T00:54:15.691Z,99988.38
2023-04-29T00:57:17.794Z,99986.50
2023-04-29T01:00:19.534Z,99987.50
2023-04-29T01:03:22.065Z,99998.34
2023-04-29T01:06:29.047Z,99985.81
2023-04-29T01:09:39.859Z,99999.38
2023-04-29T01:13:02.675Z,99999.38
2023-04-29T01:16:11.208Z,99995.63
2023-04-29T01:19:48.341Z,99999.22
2023-04-29T01:22:49.872Z,100004.81
2023-04-29T01:25:51.478Z,100010.22
2023-04-29T01:29:28.623Z,100008.34
2023-04-29T01:32:42.473Z,100005.66
2023-04-29T01:36:25.349Z,100014.63
2023-04-29T01:39:32.930Z,100011.06
2023-04-29T01:42:48.258Z,100008.53
2023-04-29T01:45:56.143Z,100019.38
2023-04-29T01:48:57.641Z,100023.94
2023-04-29T01:51:59.325Z,100020.38
2023-04-29T01:55:00.956Z,100017.69
2023-04-29T01:58:11.672Z,100020.38
2023-04-29T02:01:23.485Z,100028.53
2023-04-29T02:04:25.831Z,100032.06
2023-04-29T02:07:27.551Z,100037.69
2023-04-29T02:10:29.513Z,100038.53
2023-04-29T02:14:00.316Z,100044.78
2023-04-29T02:17:02.522Z,100042.25
2023-04-29T02:20:06.665Z,100053.94
2023-04-29T02:23:09.016Z,100053.09
2023-04-29T02:26:11.110Z,100059.38
2023-04-29T02:29:12.638Z,100060.38
2023-04-29T02:32:15.993Z,100065.78
2023-04-29T02:35:17.567Z,100067.66
2023-04-29T02:38:19.076Z,100077.50
2023-04-29T02:41:21.309Z,100078.34
2023-04-29T02:44:23.001Z,100080.38
2023-04-29T02:47:24.679Z,100088.34
2023-04-29T02:50:26.202Z,100094.78
2023-04-29T02:53:27.921Z,100085.81
2023-04-29T02:56:29.677Z,100093.09
2023-04-29T02:59:32.486Z,100101.03
2023-04-29T03:02:34.130Z,100102.06
2023-04-29T03:05:35.908Z,100099.50
2023-04-29T03:08:37.456Z,100106.81
2023-04-29T03:11:38.979Z,100106.81
2023-04-29T03:14:40.971Z,100108.69
2023-04-29T03:17:42.519Z,100119.53
2023-04-29T03:20:44.152Z,100110.53
2023-04-29T03:23:45.604Z,100111.38
2023-04-29T03:26:54.580Z,100125.78
2023-04-29T03:29:56.732Z,100124.09
2023-04-29T03:32:58.423Z,100120.53
2023-04-29T03:36:01.561Z,100118.69
2023-04-29T03:39:15.702Z,100128.69
2023-04-29T03:42:17.740Z,100123.25
2023-04-29T03:45:19.538Z,100125.09
2023-04-29T03:48:21.409Z,100125.09
2023-04-29T03:51:24.202Z,100136.81
2023-04-29T03:54:29.452Z,100137.66
2023-04-29T03:57:31.070Z,100147.81
2023-04-29T04:00:33.185Z,100146.78
2023-04-29T04:03:38.179Z,100152.38
2023-04-29T04:06:39.919Z,100157.81
2023-04-29T04:09:41.939Z,100168.66
2023-04-29T04:12:44.592Z,100165.94
2023-04-29T04:15:51.241Z,100178.47
2023-04-29T04:18:53.067Z,100184.09
2023-04-29T04:21:55.004Z,100189.66
2023-04-29T04:24:57.023Z,100187.78
2023-04-29T04:27:58.859Z,100195.91
2023-04-29T04:31:16.712Z,100186.94
2023-04-29T04:34:18.717Z,100199.66
2023-04-29T04:37:23.510Z,100200.66
2023-04-29T04:40:29.238Z,100207.78
2023-04-29T04:43:53.870Z,100210.50
2023-04-29T04:47:08.098Z,100220.50
2023-04-29T04:50:30.288Z,100222.19
2023-04-29T04:53:31.768Z,100229.47
2023-04-29T04:56:39.947Z,100233.19
2023-04-29T04:59:43.289Z,100233.19
2023-04-29T05:02:44.931Z,100245.91
2023-04-29T05:05:46.598Z,100248.59
2023-04-29T05:08:48.142Z,100254.88
2023-04-29T05:11:51.078Z,100253.19
2023-04-29T05:14:53.585Z,100264.03
2023-04-29T05:17:55.424Z,100274.03
2023-04-29T05:20:57.104Z,100275.91
2023-04-29T05:23:58.994Z,100269.44
2023-04-29T05:27:01.355Z,100276.75
2023-04-29T05:30:03.143Z,100276.75
2023-04-29T05:33:04.945Z,100285.88
2023-04-29T05:36:07.205Z,100285.88
2023-04-29T05:39:09.068Z,100288.44
2023-04-29T05:42:11.238Z,100301.13
2023-04-29T05:45:18.011Z,100303.00
2023-04-29T05:48:19.591Z,100306.56
2023-04-29T05:51:21.375Z,100311.13
2023-04-29T05:54:23.847Z,100314.69
2023-04-29T05:57:25.628Z,100321.09
2023-04-29T06:00:28.503Z,100319.28
2023-04-29T06:03:37.298Z,100330.13
2023-04-29T06:07:09.413Z,100337.38
2023-04-29T06:10:43.489Z,100337.56
2023-04-29T06:13:45.941Z,100342.97
2023-04-29T06:16:49.039Z,100345.50
2023-04-29T06:19:50.778Z,100350.09
2023-04-29T06:22:52.541Z,100359.25
2023-04-29T06:25:54.041Z,100356.34
2023-04-29T06:28:56.851Z,100360.94
2023-04-29T06:31:58.405Z,100377.19
2023-04-29T06:34:59.934Z,100385.31
2023-04-29T06:38:10.901Z,100388.88
2023-04-29T06:41:43.495Z,100389.75
2023-04-29T06:45:05.838Z,100402.16
2023-04-29T06:48:30.569Z,100400.28
2023-04-29T06:51:32.161Z,100407.25
2023-04-29T06:54:34.213Z,100419.97
2023-04-29T06:57:36.747Z,100424.88
2023-04-29T07:00:40.833Z,100434.56
2023-04-29T07:03:43.744Z,100439.00
2023-04-29T07:06:46.961Z,100442.41
2023-04-29T07:09:51.974Z,100442.09
2023-04-29T07:12:55.283Z,100468.88
2023-04-29T07:15:56.885Z,100465.16
2023-04-29T07:18:58.357Z,100477.53
2023-04-29T07:21:59.827Z,100477.41
2023-04-29T07:25:01.356Z,100482.69
2023-04-29T07:28:02.902Z,100493.38
2023-04-29T07:31:04.500Z,100493.63
2023-04-29T07:34:06.100Z,100492.53
2023-04-29T07:37:07.701Z,100506.09
2023-04-29T07:40:09.727Z,100508.34
2023-04-29T07:43:13.015Z,100516.16
2023-04-29T07:46:14.861Z,100519.25
2023-04-29T07:49:17.044Z,100527.78
2023-04-29T07:52:18.843Z,100528.31
2023-04-29T07:55:23.944Z,100525.31
2023-04-29T07:58:25.700Z,100533.97
2023-04-29T08:01:28.380Z,100538.09
2023-04-29T08:04:30.061Z,100536.94
2023-04-29T08:07:39.212Z,100546.63
2023-04-29T08:10:43.054Z,100550.88
2023-04-29T08:13:45.099Z,100547.00
2023-04-29T08:16:46.726Z,100551.25
2023-04-29T08:19:48.276Z,100550.25
2023-04-29T08:22:50.143Z,100563.50
2023-04-29T08:25:52.251Z,100561.47
2023-04-29T08:28:53.704Z,100563.16
2023-04-29T08:31:55.778Z,100567.44
2023-04-29T08:34:57.249Z,100562.88
2023-04-29T08:37:58.706Z,100570.88
2023-04-29T08:41:01.424Z,100578.88
2023-04-29T08:44:03.321Z,100575.47
2023-04-29T08:47:05.058Z,100583.44
2023-04-29T08:50:07.339Z,100583.44
2023-04-29T08:53:10.562Z,100588.69
2023-04-29T08:56:20.412Z,100593.13
2023-04-29T08:59:23.607Z,100597.69
2023-04-29T09:02:26.008Z,100597.69
2023-04-29T09:05:28.392Z,100601.28
2023-04-29T09:08:30.267Z,100604.00
2023-04-29T09:11:32.460Z,100604.00
2023-04-29T09:14:34.433Z,100613.81
2023-04-29T09:17:44.859Z,100611.94
2023-04-29T09:20:46.364Z,100613.97
2023-04-29T09:23:50.510Z,100624.81
2023-04-29T09:26:52.226Z,100627.69
2023-04-29T09:30:02.956Z,100626.53
2023-04-29T09:33:09.228Z,100633.84
2023-04-29T09:36:10.903Z,100631.25
2023-04-29T09:39:17.817Z,100633.84
2023-04-29T09:42:19.674Z,100631.13
2023-04-29T09:45:37.705Z,100640.09
2023-04-29T09:48:39.238Z,100647.53
2023-04-29T09:51:53.049Z,100642.81
2023-04-29T09:55:06.135Z,100656.22
2023-04-29T09:58:07.563Z,100653.66
2023-04-29T10:01:09.560Z,100654.50
2023-04-29T10:04:12.376Z,100656.22
2023-04-29T10:07:20.047Z,100658.78
2023-04-29T10:10:22.987Z,100655.22
2023-04-29T10:13:28.370Z,100660.47
2023-04-29T10:16:34.492Z,100665.75
2023-04-29T10:19:47.483Z,100660.19
2023-04-29T10:22:50.762Z,100668.31
2023-04-29T10:25:53.421Z,100664.59
2023-04-29T10:29:00.049Z,100670.88
2023-04-29T10:32:03.210Z,100667.44
2023-04-29T10:35:07.935Z,100675.44
2023-04-29T10:38:26.265Z,100674.44
2023-04-29T10:41:36.169Z,100678.00
2023-04-29T10:45:16.170Z,100677.00
2023-04-29T10:48:20.913Z,100673.56
2023-04-29T10:51:39.173Z,100673.44
2023-04-29T10:54:40.651Z,100669.88
2023-04-29T10:57:42.626Z,100671.56
2023-04-29T11:00:44.065Z,100669.69
2023-04-29T11:03:58.699Z,100677.38
2023-04-29T11:07:02.803Z,100672.97
2023-04-29T11:10:04.554Z,100678.41
2023-04-29T11:13:26.185Z,100682.81
2023-04-29T11:16:28.247Z,100680.41
2023-04-29T11:19:34.893Z,100673.13
2023-04-29T11:22:36.287Z,100677.00
2023-04-29T11:25:39.663Z,100684.28
2023-04-29T11:28:42.743Z,100679.84
2023-04-29T11:31:44.315Z,100686.44
2023-04-29T11:34:45.932Z,100681.19
2023-04-29T11:37:47.694Z,100688.47
2023-04-29T11:40:49.991Z,100695.75
2023-04-29T11:43:59.433Z,100695.75
2023-04-29T11:47:04.293Z,100696.91
2023-04-29T11:50:08.626Z,100697.91
2023-04-29T11:53:10.223Z,100698.94
2023-04-29T11:56:12.069Z,100703.47
2023-04-29T11:59:13.630Z,100705.34
2023-04-29T12:02:15.404Z,100699.91
2023-04-29T12:05:19.150Z,100706.06
2023-04-29T12:08:26.464Z,100707.59
2023-04-29T12:11:28.942Z,100701.34
2023-04-29T12:14:30.584Z,100705.75
2023-04-29T12:17:32.591Z,100708.47
2023-04-29T12:20:34.500Z,100702.19
2023-04-29T12:23:36.174Z,100707.75
2023-04-29T12:26:40.107Z,100713.03
2023-04-29T12:29:41.618Z,100710.63
2023-04-29T12:32:43.196Z,100709.78
2023-04-29T12:35:45.255Z,100702.81
2023-04-29T12:38:52.496Z,100710.78
2023-04-29T12:42:02.134Z,100718.06
2023-04-29T12:45:04.052Z,100713.81
2023-04-29T12:48:10.074Z,100721.09
2023-04-29T12:51:19.850Z,100723.06
2023-04-29T12:54:21.340Z,100733.06
2023-04-29T12:57:25.091Z,100729.50
2023-04-29T13:00:26.588Z,100734.06
2023-04-29T13:03:28.583Z,100742.19
2023-04-29T13:06:31.956Z,100731.34
2023-04-29T13:09:34.045Z,100734.06
2023-04-29T13:12:35.575Z,100736.75
2023-04-29T13:15:39.113Z,100739.47
2023-04-29T13:18:47.890Z,100735.78
2023-04-29T13:22:00.419Z,100733.06
2023-04-29T13:25:01.992Z,100729.50
2023-04-29T13:28:05.320Z,100726.63
2023-04-29T13:31:07.052Z,100726.63
2023-04-29T13:34:09.645Z,100735.59
2023-04-29T13:37:11.716Z,100742.78
2023-04-29T13:40:19.948Z,100740.94
2023-04-29T13:43:32.969Z,100739.06
2023-04-29T13:46:40.086Z,100749.78
2023-04-29T13:50:16.815Z,100745.19
2023-04-29T13:59:41.487Z,100754.03
2023-04-29T14:02:36.858Z,100763.03
2023-04-29T14:05:39.092Z,100764.72
2023-04-29T14:08:40.838Z,100762.00
2023-04-29T14:11:42.410Z,100763.72
2023-04-29T14:14:43.868Z,100762.72
2023-04-29T14:17:45.463Z,100764.44
2023-04-29T14:20:46.990Z,100766.97
2023-04-29T14:23:49.246Z,100767.84
2023-04-29T14:26:50.915Z,100772.28
2023-04-29T14:29:52.376Z,100771.25
2023-04-29T14:32:53.885Z,100785.66
2023-04-29T14:35:55.612Z,100781.97
2023-04-29T14:38:57.128Z,100783.66
2023-04-29T14:41:58.647Z,100784.50
2023-04-29T14:45:00.200Z,100790.66
2023-04-29T14:48:01.727Z,100791.50
2023-04-29T14:51:03.469Z,100790.34
2023-04-29T14:54:04.955Z,100794.78
2023-04-29T14:57:06.511Z,100795.63
2023-04-29T15:00:08.549Z,100797.19
2023-04-29T15:03:10.796Z,100798.88
2023-04-29T15:06:13.204Z,100800.44
2023-04-29T15:09:14.721Z,100793.16
2023-04-29T15:12:17.952Z,100797.56
2023-04-29T15:15:19.789Z,100799.97
2023-04-29T15:18:23.158Z,100803.53
2023-04-29T15:21:24.683Z,100799.97
2023-04-29T15:24:26.287Z,100806.44
2023-04-29T15:27:28.295Z,100808.13
2023-04-29T15:30:29.762Z,100802.88
2023-04-29T15:33:31.742Z,100805.56
2023-04-29T15:36:34.236Z,100809.13
2023-04-29T15:39:36.078Z,100808.28
2023-04-29T15:42:37.533Z,100806.44
2023-04-29T15:45:39.013Z,100807.28
2023-04-29T15:48:40.478Z,100810.84
2023-04-29T15:51:41.897Z,100814.41
2023-04-29T15:54:43.351Z,100826.13
2023-04-29T15:57:44.964Z,100823.41
2023-04-29T16:00:47.200Z,100836.09
2023-04-29T16:03:48.751Z,100825.25
2023-04-29T16:06:52.004Z,100827.13
2023-04-29T16:09:53.635Z,100820.84
2023-04-29T16:12:55.240Z,100823.56
2023-04-29T16:15:57.020Z,100832.53
2023-04-29T16:18:58.517Z,100839.84
2023-04-29T16:22:00.037Z,100839.84
2023-04-29T16:25:03.605Z,100840.88
2023-04-29T16:28:05.062Z,100846.28
2023-04-29T16:31:06.689Z,100839.84
2023-04-29T16:34:08.345Z,100846.28
2023-04-29T16:37:12.452Z,100837.25
2023-04-29T16:40:14.299Z,100844.56
2023-04-29T16:43:15.862Z,100851.72
2023-04-29T16:46:17.529Z,100848.13
2023-04-29T16:49:25.441Z,100847.28
2023-04-29T16:52:26.997Z,100847.44
2023-04-29T16:55:28.516Z,100856.44
2023-04-29T16:58:30.333Z,100859.16
2023-04-29T17:01:32.263Z,100850.16
2023-04-29T17:04:33.896Z,100863.72
2023-04-29T17:07:35.555Z,100860.00
2023-04-29T17:10:37.049Z,100863.72
2023-04-29T17:13:38.616Z,100877.31
2023-04-29T17:16:40.130Z,100883.56
2023-04-29T17:19:41.719Z,100882.72
2023-04-29T17:22:43.270Z,100885.44
2023-04-29T17:25:45.055Z,100887.28
2023-04-29T17:28:46.554Z,100891.84
2023-04-29T17:31:54.675Z,100888.16
2023-04-29T17:34:57.517Z,100890.88
2023-04-29T17:37:59.450Z,100900.84
2023-04-29T17:41:02.153Z,100912.59
2023-04-29T17:44:03.636Z,100913.56
2023-04-29T17:47:06.055Z,100910.00
2023-04-29T17:50:08.219Z,100908.13
2023-04-29T17:53:09.696Z,100914.59
2023-04-29T17:56:11.243Z,100911.47
2023-04-29T17:59:12.726Z,100919.19
2023-04-29T18:02:14.211Z,100923.91
2023-04-29T18:05:16.055Z,100924.94
2023-04-29T18:08:17.575Z,100930.50
2023-04-29T18:11:19.101Z,100929.66
2023-04-29T18:14:20.584Z,100939.47
2023-04-29T18:17:22.249Z,100941.34
2023-04-29T18:20:23.903Z,100939.66
2023-04-29T18:23:25.458Z,100950.50
2023-04-29T18:26:27.029Z,100950.50
2023-04-29T18:29:28.609Z,100955.03
2023-04-29T18:32:30.189Z,100955.94
2023-04-29T18:35:33.086Z,100961.34
2023-04-29T18:38:34.845Z,100952.19
2023-04-29T18:41:36.703Z,100961.19
2023-04-29T18:44:39.139Z,100961.19
2023-04-29T18:47:40.927Z,100960.34
2023-04-29T18:50:42.572Z,100954.91
2023-04-29T18:53:44.130Z,100975.59
2023-04-29T18:56:47.644Z,100973.78
2023-04-29T18:59:49.270Z,100979.34
2023-04-29T19:02:50.856Z,100976.63
2023-04-29T19:05:52.432Z,100982.91
2023-04-29T19:08:54.073Z,100988.31
2023-04-29T19:11:55.648Z,100992.91
2023-04-29T19:14:57.282Z,100993.03
2023-04-29T19:17:58.929Z,101003.75
2023-04-29T19:21:00.603Z,101011.91
2023-04-29T19:24:02.158Z,101017.44
2023-04-29T19:27:04.029Z,101018.47
2023-04-29T19:30:07.412Z,101025.47
2023-04-29T19:33:09.019Z,101028.19
2023-04-29T19:36:12.698Z,101031.03
2023-04-29T19:39:14.926Z,101047.16
2023-04-29T19:42:16.595Z,101043.75
2023-04-29T19:45:18.154Z,101049.16
2023-04-29T19:48:19.630Z,101047.47
2023-04-29T19:51:21.128Z,101053.75
2023-04-29T19:54:22.605Z,101060.03
2023-04-29T19:57:24.167Z,101059.16
2023-04-29T20:00:26.126Z,101061.88
2023-04-29T20:03:28.733Z,101064.59
2023-04-29T20:06:32.060Z,101070.03
2023-04-29T20:09:34.991Z,101072.72
2023-04-29T20:12:36.561Z,101075.44
2023-04-29T20:15:38.091Z,101086.31
2023-04-29T20:18:40.740Z,101090.88
2023-04-29T20:21:42.249Z,101089.00
2023-04-29T20:24:44.641Z,101096.13
2023-04-29T20:27:46.182Z,101103.44
2023-04-29T20:30:47.783Z,101107.72
2023-04-29T20:33:49.298Z,101109.72
2023-04-29T20:36:50.891Z,101108.00
2023-04-29T20:39:52.582Z,101116.00
2023-04-29T20:42:54.260Z,101107.00
2023-04-29T20:45:56.246Z,101113.16
2023-04-29T20:48:57.844Z,101110.44
2023-04-29T20:51:59.838Z,101118.56
2023-04-29T20:55:01.557Z,101118.56
2023-04-29T20:58:03.112Z,101118.56
2023-04-29T21:01:04.970Z,101125.72
2023-04-29T21:04:06.993Z,101121.28
2023-04-29T21:07:08.739Z,101125.72
2023-04-29T21:10:10.456Z,101123.00
2023-04-29T21:13:12.008Z,101128.44
2023-04-29T21:16:13.565Z,101139.28
2023-04-29T21:19:15.105Z,101135.69
2023-04-29T21:22:16.610Z,101135.69
2023-04-29T21:25:18.121Z,101135.69
2023-04-29T21:28:19.655Z,101129.41
2023-04-29T21:31:21.190Z,101139.28
2023-04-29T21:34:22.718Z,101136.59
2023-04-29T21:37:24.276Z,101133.88
2023-04-29T21:40:26.616Z,101139.28
2023-04-29T21:43:28.443Z,101148.28
2023-04-29T21:46:33.275Z,101158.00
2023-04-29T21:49:36.169Z,101144.56
2023-04-29T21:52:37.778Z,101150.84
2023-04-29T21:55:40.660Z,101158.97
2023-04-29T21:58:43.426Z,101146.13
2023-04-29T22:01:45.539Z,101159.69
2023-04-29T22:04:47.470Z,101157.84
2023-04-29T22:07:48.983Z,101157.84
2023-04-29T22:10:50.627Z,101165.00
2023-04-29T22:13:52.225Z,101170.25
2023-04-29T22:16:53.810Z,101163.84
2023-04-29T22:19:55.795Z,101163.84
2023-04-29T22:22:57.880Z,101163.69
2023-04-29T22:25:59.434Z,101171.84
2023-04-29T22:29:01.375Z,101170.84
2023-04-29T22:32:03.047Z,101171.69
2023-04-29T22:35:05.556Z,101179.72
2023-04-29T22:38:07.243Z,101178.84
2023-04-29T22:41:09.895Z,101178.84
2023-04-29T22:44:11.515Z,101186.00
2023-04-29T22:47:14.442Z,101183.13
2023-04-29T22:50:16.112Z,101184.13
2023-04-29T22:53:17.867Z,101185.69
2023-04-29T22:56:19.388Z,101184.00
2023-04-29T22:59:20.930Z,101188.41
2023-04-29T23:02:29.280Z,101200.97
2023-04-29T23:05:31.318Z,101198.41
2023-04-29T23:08:32.835Z,101202.84
2023-04-29T23:11:34.372Z,101206.41
2023-04-29T23:14:35.830Z,101210.84
2023-04-29T23:17:39.633Z,101208.13
2023-04-29T23:20:41.211Z,101213.56
2023-04-29T23:23:42.750Z,101213.41
2023-04-29T23:26:44.562Z,101215.13
2023-04-29T23:29:46.120Z,101219.72
2023-04-29T23:32:47.677Z,101214.28
2023-04-29T23:35:50.580Z,101218.69
2023-04-29T23:38:52.106Z,101222.28
2023-04-29T23:41:53.571Z,101219.56
2023-04-29T23:44:55.111Z,101216.84
2023-04-29T23:47:56.639Z,101214.13
2023-04-29T23:50:58.206Z,101212.41
2023-04-29T23:54:00.757Z,101217.00
2023-04-29T23:57:02.657Z,101219.72
